Airfield :







YOU CAN JOIN US ON...

 
LOGIN :

Register | Disclaimer

   EN    FR    IT 

 









Legend :    VFR   Marginal VFR   IFR   Intensive IFR   Very Intensive IFR
Visi :
Ceiling :
>= 8 km
>= 3000ft
5 to 8 km
1000 to 3000 ft
1500m to 5 km
500 to 1000 ft
800 to 1500m
200 to 500 ft
< 800m
< 200 ft
Symbols :   Thunderstorms  Fog  Heavy snow  Heavy precipitations  Wind > 20 kt






- Airport Elevation : 328 ft


KGFL - Floyd Bennett Memorial

CURRENT METAR :
  • 231753Z AUTO 31009KT 10SM FEW050 26/13 A2981 RMK AO2 SLP093 60000 T02610133 10261 20211 58013

EXPIRED METARs :
  • 231653Z AUTO 19007KT 10SM FEW036 24/17 A2983 RMK AO2 SLP100 T02390167
  • 231553Z AUTO 20007KT 10SM CLR 23/18 A2986 RMK AO2 SLP109 T02280183
  • 231453Z AUTO 21007KT 10SM FEW120 23/19 A2985 RMK AO2 RAE02 SLP108 P0000 60000 T02280189 51012
  • 231353Z AUTO 18006KT 8SM -RA FEW075 OVC100 21/19 A2985 RMK AO2 RAB42 SLP105 P0000 T02110189

TAF KGFL
Valid from the 23 at 18:00 until the 24 at 18:00 UTC


231731Z 2318/2418 20007KT P6SM FEW035 BKN250
FM232000 25009KT P6SM FEW040 SCT250
FM240200 VRB03KT P6SM FEW250
FM241300 23012G18KT P6SM SKC
KZBW FIR / North America



MET'MAP, your aeronautical weather chart ! - Copyright ORBIFLY December 2007 - Disclaimer

ORBIFLY MET'MAP TEAM :

Programming & Development : Alexandra Zaïnal
Original concept : Baudouin d'Aumeries
Technical & hardware support : Manuel Goepfert
Assistance : Marc-Olivier Méhu




SOURCES & CREDITS :

   NOAA